createdAt,value
2023-05-25T00:02:06.911Z,99504.44
2023-05-25T00:04:55.002Z,99522.38
2023-05-25T00:07:42.877Z,99516.47
2023-05-25T00:10:30.841Z,99510.50
2023-05-25T00:13:18.626Z,99512.47
2023-05-25T00:16:07.304Z,99479.66
2023-05-25T00:18:57.903Z,99503.28
2023-05-25T00:21:48.304Z,99507.75
2023-05-25T00:24:36.340Z,99503.88
2023-05-25T00:27:24.630Z,99502.75
2023-05-25T00:30:13.421Z,99507.91
2023-05-25T00:33:02.021Z,99506.16
2023-05-25T00:35:52.702Z,99499.78
2023-05-25T00:38:41.006Z,99501.72
2023-05-25T00:41:29.381Z,99502.03
2023-05-25T00:44:21.683Z,99508.78
2023-05-25T00:47:09.842Z,99511.34
2023-05-25T00:49:58.984Z,99498.97
2023-05-25T00:52:48.762Z,99495.25
2023-05-25T00:55:40.261Z,99499.75
2023-05-25T00:58:31.082Z,99485.28
2023-05-25T01:01:22.134Z,99493.00
2023-05-25T01:04:13.425Z,99506.84
2023-05-25T01:07:02.385Z,99486.94
2023-05-25T01:09:58.177Z,99494.81
2023-05-25T01:12:47.081Z,99491.59
2023-05-25T01:15:35.245Z,99484.03
2023-05-25T01:18:23.107Z,99496.28
2023-05-25T01:21:20.351Z,99493.16
2023-05-25T01:24:17.657Z,99496.09
2023-05-25T01:27:14.043Z,99496.34
2023-05-25T01:30:03.830Z,99489.13
2023-05-25T01:32:52.003Z,99502.00
2023-05-25T01:35:40.565Z,99501.56
2023-05-25T01:38:29.714Z,99498.44
2023-05-25T01:41:17.746Z,99498.19
2023-05-25T01:44:07.709Z,99492.84
2023-05-25T01:47:03.754Z,99494.31
2023-05-25T01:50:01.317Z,99491.31
2023-05-25T01:52:54.922Z,99384.41
2023-05-25T01:55:54.860Z,99495.84
2023-05-25T01:58:45.623Z,99495.53
2023-05-25T02:01:36.606Z,99507.69
2023-05-25T02:04:24.666Z,99481.31
2023-05-25T02:07:12.522Z,99510.22
2023-05-25T02:10:00.670Z,99490.84
2023-05-25T02:12:49.735Z,99506.91
2023-05-25T02:15:37.785Z,99502.50
2023-05-25T02:18:26.506Z,99504.22
2023-05-25T02:21:14.321Z,99508.84
2023-05-25T02:24:02.021Z,99511.53
2023-05-25T02:26:49.730Z,99504.56
2023-05-25T02:29:38.923Z,99497.91
2023-05-25T02:32:26.624Z,99505.03
2023-05-25T02:35:14.695Z,99484.00
2023-05-25T02:38:02.849Z,99507.31
2023-05-25T02:40:50.828Z,99513.03
2023-05-25T02:43:39.385Z,99512.44
2023-05-25T02:46:28.765Z,99512.78
2023-05-25T02:49:16.789Z,99521.97
2023-05-25T02:52:05.175Z,99522.75
2023-05-25T02:54:53.115Z,99521.97
2023-05-25T02:57:41.081Z,99524.94
2023-05-25T03:00:28.825Z,99522.00
2023-05-25T03:03:17.929Z,99519.72
2023-05-25T03:06:05.961Z,99527.69
2023-05-25T03:08:53.868Z,99533.91
2023-05-25T03:11:41.587Z,99488.41
2023-05-25T03:14:29.590Z,99536.56
2023-05-25T03:17:17.405Z,99533.22
2023-05-25T03:20:10.613Z,99538.34
2023-05-25T03:22:58.445Z,99535.84
2023-05-25T03:25:46.819Z,99539.94
2023-05-25T03:28:34.861Z,99532.59
2023-05-25T03:31:22.563Z,99529.00
2023-05-25T03:34:10.677Z,99534.13
2023-05-25T03:36:59.821Z,99538.94
2023-05-25T03:39:47.610Z,99544.91
2023-05-25T03:42:35.570Z,99536.47
2023-05-25T03:45:23.359Z,99547.06
2023-05-25T03:48:11.237Z,99523.34
2023-05-25T03:50:59.203Z,99550.47
2023-05-25T03:53:48.540Z,99546.53
2023-05-25T03:56:36.709Z,99544.63
2023-05-25T03:59:25.654Z,99552.81
2023-05-25T04:02:13.441Z,99518.22
2023-05-25T04:05:01.122Z,99555.59
2023-05-25T04:07:49.151Z,99555.75
2023-05-25T04:10:38.251Z,99560.50
2023-05-25T04:13:26.388Z,99546.81
2023-05-25T04:16:14.832Z,99554.47
2023-05-25T04:19:02.546Z,99558.84
2023-05-25T04:21:50.298Z,99555.00
2023-05-25T04:24:37.961Z,99563.34
2023-05-25T04:27:28.485Z,99577.59
2023-05-25T04:30:16.761Z,99563.28
2023-05-25T04:33:04.967Z,99574.63
2023-05-25T04:35:54.483Z,99565.44
2023-05-25T04:38:43.047Z,99572.72
2023-05-25T04:41:31.090Z,99567.31
2023-05-25T04:44:20.674Z,99570.19
2023-05-25T04:47:08.787Z,99577.88
2023-05-25T04:49:56.836Z,99569.28
2023-05-25T04:52:44.561Z,99571.91
2023-05-25T04:55:32.299Z,99574.59
2023-05-25T04:58:19.971Z,99576.94
2023-05-25T05:01:09.097Z,99569.91
2023-05-25T05:03:57.101Z,99570.22
2023-05-25T05:06:45.430Z,99574.09
2023-05-25T05:09:33.283Z,99578.94
2023-05-25T05:12:21.381Z,99573.06
2023-05-25T05:15:09.894Z,99578.59
2023-05-25T05:17:58.992Z,99566.84
2023-05-25T05:20:47.087Z,99576.72
2023-05-25T05:23:34.830Z,99576.94
2023-05-25T05:26:23.120Z,99581.34
2023-05-25T05:29:11.209Z,99570.06
2023-05-25T05:31:59.205Z,99580.59
2023-05-25T05:34:48.377Z,99581.47
2023-05-25T05:37:36.354Z,99583.44
2023-05-25T05:40:26.214Z,99586.28
2023-05-25T05:43:15.144Z,99580.34
2023-05-25T05:46:03.225Z,99586.66
2023-05-25T05:48:51.061Z,99581.22
2023-05-25T05:51:40.241Z,99577.75
2023-05-25T05:54:29.118Z,99580.19
2023-05-25T05:57:16.777Z,99580.97
2023-05-25T06:00:06.992Z,99582.78
2023-05-25T06:02:55.178Z,99596.56
2023-05-25T06:05:43.498Z,99592.78
2023-05-25T06:08:32.784Z,99597.22
2023-05-25T06:11:20.462Z,99599.31
2023-05-25T06:14:08.503Z,99604.19
2023-05-25T06:16:56.359Z,99597.78
2023-05-25T06:19:44.395Z,99603.75
2023-05-25T06:22:33.421Z,99576.88
2023-05-25T06:25:22.958Z,99599.88
2023-05-25T06:28:10.778Z,99596.47
2023-05-25T06:30:58.852Z,99602.31
2023-05-25T06:33:46.704Z,99600.34
2023-05-25T06:36:34.405Z,99605.03
2023-05-25T06:39:22.318Z,99598.50
2023-05-25T06:42:12.434Z,99606.97
2023-05-25T06:45:00.515Z,99605.84
2023-05-25T06:47:48.342Z,99607.16
2023-05-25T06:50:36.093Z,99605.84
2023-05-25T06:53:23.855Z,99606.78
2023-05-25T06:56:11.741Z,99604.56
2023-05-25T06:59:01.118Z,99602.38
2023-05-25T07:01:48.854Z,99578.16
2023-05-25T07:04:36.964Z,99571.72
2023-05-25T07:07:24.704Z,99580.78
2023-05-25T07:10:12.804Z,99596.34
2023-05-25T07:13:00.431Z,99596.00
2023-05-25T07:15:49.569Z,99598.53
2023-05-25T07:18:40.796Z,99594.56
2023-05-25T07:21:28.730Z,99596.38
2023-05-25T07:24:16.566Z,99599.28
2023-05-25T07:27:04.928Z,99610.63
2023-05-25T07:29:52.798Z,99586.34
2023-05-25T07:32:42.649Z,99595.06
2023-05-25T07:35:30.508Z,99589.94
2023-05-25T07:38:18.660Z,99598.81
2023-05-25T07:41:06.572Z,99601.69
2023-05-25T07:43:54.441Z,99602.59
2023-05-25T07:46:42.191Z,99595.50
2023-05-25T07:49:31.274Z,99601.81
2023-05-25T07:52:19.634Z,99600.63
2023-05-25T07:55:08.402Z,99608.69
2023-05-25T07:57:56.418Z,99601.81
2023-05-25T08:00:44.695Z,99605.50
2023-05-25T08:03:48.262Z,99609.00
2023-05-25T08:06:38.613Z,99608.63
2023-05-25T08:09:26.279Z,99614.78
2023-05-25T08:12:34.295Z,99602.66
2023-05-25T08:15:21.775Z,99606.53
2023-05-25T08:18:09.816Z,99607.41
2023-05-25T08:20:57.848Z,99605.75
2023-05-25T08:23:47.043Z,99601.47
2023-05-25T08:26:53.085Z,99594.75
2023-05-25T08:29:42.282Z,99604.22
2023-05-25T08:32:30.037Z,99598.03
2023-05-25T08:35:18.168Z,99598.94
2023-05-25T08:38:06.024Z,99592.91
2023-05-25T08:41:05.903Z,99598.88
2023-05-25T08:43:54.201Z,99598.00
2023-05-25T08:46:42.296Z,99584.41
2023-05-25T08:49:31.630Z,99604.28
2023-05-25T08:52:23.509Z,99602.28
2023-05-25T08:55:12.357Z,99595.81
2023-05-25T08:58:08.264Z,99598.94
2023-05-25T09:00:59.799Z,99596.44
2023-05-25T09:03:48.336Z,99593.56
2023-05-25T09:06:38.617Z,99580.00
2023-05-25T09:09:26.874Z,99581.25
2023-05-25T09:12:16.562Z,99534.69
2023-05-25T09:15:06.319Z,99578.22
2023-05-25T09:17:54.182Z,99588.03
2023-05-25T09:20:45.105Z,99579.22
2023-05-25T09:23:35.588Z,99566.88
2023-05-25T09:26:23.625Z,99565.63
2023-05-25T09:29:14.663Z,99561.53
2023-05-25T09:32:05.681Z,99561.53
2023-05-25T09:34:55.588Z,99571.13
2023-05-25T09:37:44.770Z,99548.56
2023-05-25T09:40:34.365Z,99554.22
2023-05-25T09:43:36.424Z,99554.81
2023-05-25T09:46:28.407Z,99548.53
2023-05-25T09:49:17.671Z,99547.72
2023-05-25T09:52:06.059Z,99552.72
2023-05-25T09:54:55.053Z,99549.97
2023-05-25T09:57:44.286Z,99548.72
2023-05-25T10:00:32.361Z,99540.53
2023-05-25T10:03:21.954Z,99543.41
2023-05-25T10:06:11.683Z,99535.84
2023-05-25T10:08:59.771Z,99534.41
2023-05-25T10:11:48.034Z,99526.47
2023-05-25T10:14:38.872Z,99506.88
2023-05-25T10:17:29.059Z,99533.66
2023-05-25T10:20:17.432Z,99526.78
2023-05-25T10:23:12.608Z,99524.91
2023-05-25T10:26:04.662Z,99525.97
2023-05-25T10:28:53.127Z,99525.88
2023-05-25T10:31:41.430Z,99522.13
2023-05-25T10:34:30.131Z,99531.25
2023-05-25T10:37:18.243Z,99530.19
2023-05-25T10:40:09.722Z,99524.91
2023-05-25T10:42:57.804Z,99529.81
2023-05-25T10:45:45.833Z,99524.09
2023-05-25T10:48:37.887Z,99523.22
2023-05-25T10:51:38.630Z,99512.91
2023-05-25T10:54:30.369Z,99501.13
2023-05-25T10:57:24.460Z,99474.34
2023-05-25T11:00:14.775Z,99512.16
2023-05-25T11:03:03.396Z,99503.09
2023-05-25T11:05:52.246Z,99514.63
2023-05-25T11:08:55.853Z,99496.81
2023-05-25T11:12:03.775Z,99510.41
2023-05-25T11:15:15.508Z,99511.09
2023-05-25T11:18:03.578Z,99500.66
2023-05-25T11:20:51.501Z,99479.88
2023-05-25T11:23:53.296Z,99493.69
2023-05-25T11:26:54.798Z,99434.56
2023-05-25T11:29:42.591Z,99475.56
2023-05-25T11:32:31.763Z,99491.81
2023-05-25T11:35:19.494Z,99497.03
2023-05-25T11:38:08.623Z,99487.69
2023-05-25T11:40:56.695Z,99493.31
2023-05-25T11:43:46.912Z,99496.06
2023-05-25T11:46:35.531Z,99450.16
2023-05-25T11:49:25.978Z,99486.88
2023-05-25T11:52:15.388Z,99467.63
2023-05-25T11:55:03.290Z,99471.03
2023-05-25T11:57:58.855Z,99481.84
2023-05-25T12:00:46.676Z,99474.00
2023-05-25T12:03:34.766Z,99472.03
2023-05-25T12:06:28.741Z,99460.31
2023-05-25T12:09:21.009Z,99467.25
2023-05-25T12:12:09.396Z,99452.03
2023-05-25T12:14:59.094Z,99456.75
2023-05-25T12:17:47.233Z,99457.75
2023-05-25T12:20:38.815Z,99460.25
2023-05-25T12:23:28.145Z,99465.72
2023-05-25T12:26:17.752Z,99469.09
2023-05-25T12:29:07.265Z,99472.72
2023-05-25T12:32:02.670Z,99479.47
2023-05-25T12:34:50.527Z,99468.63
2023-05-25T12:37:38.333Z,99466.91
2023-05-25T12:40:28.723Z,99470.94
2023-05-25T12:43:17.729Z,99469.91
2023-05-25T12:46:05.634Z,99480.75
2023-05-25T12:48:53.439Z,99486.25
2023-05-25T12:51:41.200Z,99478.31
2023-05-25T12:54:45.848Z,99485.41
2023-05-25T12:57:36.898Z,99497.34
2023-05-25T13:00:26.788Z,99522.66
2023-05-25T13:03:14.628Z,99551.50
2023-05-25T13:06:03.427Z,99544.38
2023-05-25T13:08:51.383Z,99541.03
2023-05-25T13:11:39.112Z,99556.41
2023-05-25T13:14:28.460Z,99534.84
2023-05-25T13:17:16.351Z,99552.84
2023-05-25T13:20:05.131Z,99553.28
2023-05-25T13:22:55.739Z,99539.13
2023-05-25T13:25:43.601Z,99527.28
2023-05-25T13:28:31.486Z,99517.25
2023-05-25T13:31:20.658Z,99509.84
2023-05-25T13:34:08.674Z,99499.09
2023-05-25T13:36:56.649Z,99497.72
2023-05-25T13:39:44.584Z,99511.34
2023-05-25T13:42:32.468Z,99516.44
2023-05-25T13:45:20.674Z,99511.03
2023-05-25T13:48:09.828Z,99518.38
2023-05-25T13:50:57.606Z,99512.84
2023-05-25T13:53:45.784Z,99523.88
2023-05-25T13:56:33.541Z,99532.50
2023-05-25T13:59:21.573Z,99535.78
2023-05-25T14:02:09.287Z,99524.06
2023-05-25T14:04:58.629Z,99524.97
2023-05-25T14:07:47.186Z,99518.97
2023-05-25T14:10:35.000Z,99507.28
2023-05-25T14:13:23.046Z,99524.59
2023-05-25T14:16:10.985Z,99493.19
2023-05-25T14:18:58.985Z,99435.06
2023-05-25T14:21:56.673Z,99509.22
2023-05-25T14:24:51.976Z,99510.72
2023-05-25T14:27:39.853Z,99447.75
2023-05-25T14:30:27.585Z,99521.63
2023-05-25T14:33:17.382Z,99527.53
2023-05-25T14:36:06.090Z,99517.78
2023-05-25T14:38:55.220Z,99516.53
2023-05-25T14:41:43.262Z,99523.88
2023-05-25T14:44:30.952Z,99534.25
2023-05-25T14:47:18.722Z,99540.25
2023-05-25T14:50:07.528Z,99534.03
2023-05-25T14:52:55.220Z,99529.13
2023-05-25T14:55:44.625Z,99541.13
2023-05-25T14:58:32.978Z,99541.34
2023-05-25T15:01:23.094Z,99542.34
2023-05-25T15:04:13.081Z,99521.63
2023-05-25T15:07:01.514Z,99522.56
2023-05-25T15:09:49.542Z,99522.66
2023-05-25T15:12:38.667Z,99518.88
2023-05-25T15:15:26.622Z,99519.72
2023-05-25T15:18:14.430Z,99509.47
2023-05-25T15:21:02.456Z,99506.50
2023-05-25T15:23:50.276Z,99503.84
2023-05-25T15:26:37.920Z,99511.31
2023-05-25T15:29:27.037Z,99448.63
2023-05-25T15:32:17.844Z,99507.78
2023-05-25T15:35:06.384Z,99493.16
2023-05-25T15:37:54.056Z,99509.22
2023-05-25T15:40:41.841Z,99500.97
2023-05-25T15:43:29.520Z,99512.41
2023-05-25T15:46:18.652Z,99509.59
2023-05-25T15:49:10.965Z,99518.66
2023-05-25T15:51:58.666Z,99519.66
2023-05-25T15:54:46.555Z,99490.00
2023-05-25T15:57:34.366Z,99512.13
2023-05-25T16:00:22.500Z,99499.03
2023-05-25T16:03:11.673Z,99502.19
2023-05-25T16:05:59.851Z,99504.25
2023-05-25T16:08:47.716Z,99503.34
2023-05-25T16:11:35.612Z,99511.41
2023-05-25T16:14:23.641Z,99499.16
2023-05-25T16:17:11.980Z,99509.59
2023-05-25T16:20:01.224Z,99507.78
2023-05-25T16:22:48.962Z,99500.31
2023-05-25T16:25:36.756Z,99503.53
2023-05-25T16:28:24.632Z,99492.50
2023-05-25T16:31:13.538Z,99509.72
2023-05-25T16:34:01.656Z,99440.88
2023-05-25T16:36:50.832Z,99506.72
2023-05-25T16:39:38.622Z,99503.69
2023-05-25T16:42:26.414Z,99506.09
2023-05-25T16:45:14.110Z,99507.19
2023-05-25T16:48:01.757Z,99519.88
2023-05-25T16:50:49.564Z,99526.53
2023-05-25T16:53:38.756Z,99524.53
2023-05-25T16:56:26.862Z,99529.16
2023-05-25T16:59:14.874Z,99525.50
2023-05-25T17:02:02.562Z,99522.47
2023-05-25T17:04:50.401Z,99517.63
2023-05-25T17:07:39.374Z,99517.72
2023-05-25T17:10:28.457Z,99514.06
2023-05-25T17:13:16.802Z,99524.03
2023-05-25T17:16:04.554Z,99518.91
2023-05-25T17:18:52.552Z,99519.19
2023-05-25T17:21:40.256Z,99518.72
2023-05-25T17:24:28.072Z,99514.03
2023-05-25T17:27:17.667Z,99514.97
2023-05-25T17:30:06.128Z,99513.31
2023-05-25T17:32:54.634Z,99522.44
2023-05-25T17:35:42.333Z,99514.88
2023-05-25T17:38:30.307Z,99514.75
2023-05-25T17:41:18.200Z,99515.34
2023-05-25T17:44:07.599Z,99530.19
2023-05-25T17:46:55.256Z,99528.63
2023-05-25T17:49:43.121Z,99525.91
2023-05-25T17:52:31.745Z,99509.13
2023-05-25T17:55:20.640Z,99521.13
2023-05-25T17:58:08.563Z,99530.41
2023-05-25T18:00:57.844Z,99519.97
2023-05-25T18:03:45.952Z,99517.38
2023-05-25T18:06:34.139Z,99522.69
2023-05-25T18:09:22.363Z,99523.03
2023-05-25T18:12:10.578Z,99529.75
2023-05-25T18:14:58.162Z,99520.16
2023-05-25T18:17:47.384Z,99531.34
2023-05-25T18:20:35.343Z,99530.31
2023-05-25T18:23:23.394Z,99529.09
2023-05-25T18:26:11.041Z,99523.59
2023-05-25T18:28:58.691Z,99525.72
2023-05-25T18:31:48.911Z,99528.81
2023-05-25T18:34:38.125Z,99481.41
2023-05-25T18:37:26.662Z,99535.97
2023-05-25T18:40:14.706Z,99538.03
2023-05-25T18:43:02.589Z,99542.59
2023-05-25T18:45:50.260Z,99542.81
2023-05-25T18:48:37.923Z,99533.38
2023-05-25T18:51:26.996Z,99537.25
2023-05-25T18:54:14.881Z,99548.88
2023-05-25T18:57:03.054Z,99538.06
2023-05-25T18:59:50.948Z,99551.72
2023-05-25T19:02:39.115Z,99549.59
2023-05-25T19:05:27.555Z,99561.75
2023-05-25T19:08:16.797Z,99536.50
2023-05-25T19:11:04.530Z,99564.50
2023-05-25T19:13:52.307Z,99562.72
2023-05-25T19:16:40.136Z,99563.38
2023-05-25T19:19:27.864Z,99566.56
2023-05-25T19:22:18.356Z,99570.19
2023-05-25T19:25:08.729Z,99552.75
2023-05-25T19:27:58.691Z,99568.88
2023-05-25T19:30:46.447Z,99579.38
2023-05-25T19:33:34.174Z,99584.28
2023-05-25T19:36:22.810Z,99577.25
2023-05-25T19:39:10.492Z,99590.84
2023-05-25T19:42:00.308Z,99594.41
2023-05-25T19:44:48.234Z,99596.41
2023-05-25T19:47:36.024Z,99593.56
2023-05-25T19:50:23.822Z,99595.59
2023-05-25T19:53:11.561Z,99589.84
2023-05-25T19:55:59.797Z,99597.31
2023-05-25T19:58:48.886Z,99592.13
2023-05-25T20:01:38.334Z,99591.81
2023-05-25T20:04:26.432Z,99570.59
2023-05-25T20:07:14.464Z,99595.50
2023-05-25T20:10:02.107Z,99598.28
2023-05-25T20:12:49.913Z,99590.75
2023-05-25T20:15:39.163Z,99587.31
2023-05-25T20:18:26.916Z,99579.59
2023-05-25T20:21:15.003Z,99581.41
2023-05-25T20:24:03.537Z,99584.88
2023-05-25T20:26:56.619Z,99589.00
2023-05-25T20:29:44.575Z,99589.31
2023-05-25T20:32:33.785Z,99578.91
2023-05-25T20:35:21.936Z,99580.59
2023-05-25T20:38:09.709Z,99582.66
2023-05-25T20:40:57.529Z,99581.59
2023-05-25T20:43:45.309Z,99555.94
2023-05-25T20:46:33.248Z,99577.91
2023-05-25T20:49:24.459Z,99588.31
2023-05-25T20:52:13.675Z,99581.94
2023-05-25T20:55:01.585Z,99544.78
2023-05-25T20:57:49.528Z,99593.81
2023-05-25T21:00:37.284Z,99595.44
2023-05-25T21:03:25.107Z,99594.94
2023-05-25T21:06:14.555Z,99591.84
2023-05-25T21:09:02.385Z,99593.25
2023-05-25T21:11:50.305Z,99584.38
2023-05-25T21:14:38.238Z,99578.13
2023-05-25T21:17:26.097Z,99574.41
2023-05-25T21:20:14.061Z,99574.25
2023-05-25T21:23:03.245Z,99574.41
2023-05-25T21:25:50.963Z,99578.31
2023-05-25T21:28:38.873Z,99580.50
2023-05-25T21:31:26.790Z,99560.44
2023-05-25T21:34:15.056Z,99581.78
2023-05-25T21:37:03.357Z,99556.59
2023-05-25T21:39:52.598Z,99577.47
2023-05-25T21:42:40.333Z,99577.44
2023-05-25T21:45:28.139Z,99578.09
2023-05-25T21:48:16.031Z,99572.34
2023-05-25T21:51:03.936Z,99572.34
2023-05-25T21:53:52.045Z,99570.41
2023-05-25T21:56:41.128Z,99575.22
2023-05-25T21:59:28.990Z,99582.75
2023-05-25T22:02:16.780Z,99572.34
2023-05-25T22:05:04.885Z,99576.91
2023-05-25T22:07:55.040Z,99581.75
2023-05-25T22:10:43.448Z,99570.69
2023-05-25T22:13:32.779Z,99574.41
2023-05-25T22:16:20.543Z,99565.09
2023-05-25T22:19:08.845Z,99569.19
2023-05-25T22:21:56.547Z,99566.81
2023-05-25T22:24:44.250Z,99544.59
2023-05-25T22:27:32.133Z,99563.72
2023-05-25T22:30:21.285Z,99553.13
2023-05-25T22:33:09.354Z,99551.97
2023-05-25T22:35:57.091Z,99560.31
2023-05-25T22:38:44.962Z,99499.97
2023-05-25T22:41:32.725Z,99554.00
2023-05-25T22:44:20.504Z,99530.59
2023-05-25T22:47:09.618Z,99553.47
2023-05-25T22:49:57.385Z,99556.88
2023-05-25T22:52:45.466Z,99562.91
2023-05-25T22:55:33.363Z,99554.94
2023-05-25T22:58:21.224Z,99558.50
2023-05-25T23:01:08.889Z,99549.00
2023-05-25T23:03:59.653Z,99552.06
2023-05-25T23:06:47.580Z,99549.38
2023-05-25T23:09:35.309Z,99533.66
2023-05-25T23:12:23.266Z,99548.91
2023-05-25T23:15:12.331Z,99542.16
2023-05-25T23:18:00.269Z,99551.78
2023-05-25T23:20:50.489Z,99520.38
2023-05-25T23:23:38.306Z,99543.06
2023-05-25T23:26:26.630Z,99544.97
2023-05-25T23:29:14.367Z,99536.22
2023-05-25T23:32:02.520Z,99541.91
2023-05-25T23:34:50.348Z,99529.25
2023-05-25T23:37:39.639Z,99522.19
2023-05-25T23:40:27.356Z,99520.47
2023-05-25T23:43:15.218Z,99519.19
2023-05-25T23:46:03.364Z,99519.25
2023-05-25T23:48:51.273Z,99523.81
2023-05-25T23:51:39.198Z,99531.38
2023-05-25T23:54:28.253Z,99511.06
2023-05-25T23:57:16.155Z,99518.56
